createdAt,value
2019-04-25T00:03:22.724Z,72.80
2019-04-25T00:08:27.650Z,73.00
2019-04-25T00:13:33.168Z,73.00
2019-04-25T00:18:38.655Z,73.20
2019-04-25T00:23:45.452Z,73.80
2019-04-25T00:28:50.399Z,74.40
2019-04-25T00:33:55.306Z,74.60
2019-04-25T00:39:01.899Z,75.00
2019-04-25T00:44:08.353Z,75.30
2019-04-25T00:49:13.157Z,75.90
2019-04-25T00:54:17.882Z,76.60
2019-04-25T00:59:24.332Z,77.30
2019-04-25T01:04:31.592Z,77.80
2019-04-25T01:09:37.251Z,77.90
2019-04-25T01:14:44.267Z,78.40
2019-04-25T01:19:50.987Z,78.80
2019-04-25T01:24:56.122Z,78.90
2019-04-25T01:30:00.983Z,79.00
2019-04-25T01:35:09.758Z,79.00
2019-04-25T01:40:16.168Z,79.10
2019-04-25T01:45:23.971Z,79.60
2019-04-25T01:50:28.975Z,79.80
2019-04-25T01:55:33.785Z,79.70
2019-04-25T02:00:40.202Z,80.30
2019-04-25T02:05:45.253Z,80.80
2019-04-25T02:10:52.387Z,80.80
2019-04-25T02:15:59.201Z,81.00
2019-04-25T02:21:05.444Z,81.40
2019-04-25T02:26:15.933Z,81.70
2019-04-25T02:31:18.402Z,82.10
2019-04-25T02:36:24.715Z,82.80
2019-04-25T02:41:29.836Z,83.20
2019-04-25T02:46:37.290Z,83.20
2019-04-25T02:51:45.074Z,83.40
2019-04-25T02:56:49.913Z,83.50
2019-04-25T03:01:54.714Z,83.80
2019-04-25T03:07:00.628Z,84.00
2019-04-25T03:12:07.644Z,84.20
2019-04-25T03:17:14.400Z,84.70
2019-04-25T03:22:20.701Z,85.40
2019-04-25T03:27:25.796Z,85.50
2019-04-25T03:32:30.885Z,86.20
2019-04-25T03:37:35.697Z,86.50
2019-04-25T03:42:40.564Z,87.90
2019-04-25T03:47:45.628Z,89.30
2019-04-25T03:52:50.473Z,89.50
2019-04-25T03:57:55.318Z,89.60
2019-04-25T04:03:00.486Z,88.80
2019-04-25T04:08:06.425Z,88.70
2019-04-25T04:13:12.265Z,88.20
2019-04-25T04:18:18.946Z,87.10
2019-04-25T04:23:25.502Z,86.60
2019-04-25T04:28:30.381Z,85.90
2019-04-25T04:33:35.243Z,85.00
2019-04-25T04:38:40.103Z,84.40
2019-04-25T04:43:44.969Z,83.50
2019-04-25T04:48:49.856Z,82.60
2019-04-25T04:53:54.905Z,81.90
2019-04-25T04:58:59.936Z,81.50
2019-04-25T05:04:06.498Z,80.40
2019-04-25T05:09:15.153Z,80.00
2019-04-25T05:14:19.699Z,79.20
2019-04-25T05:19:24.519Z,78.40
2019-04-25T05:24:29.557Z,77.40
2019-04-25T05:29:34.525Z,76.40
2019-04-25T05:34:39.599Z,75.50
2019-04-25T05:39:44.637Z,75.00
2019-04-25T05:44:49.583Z,74.30
2019-04-25T05:49:54.607Z,73.80
2019-04-25T05:54:59.769Z,73.50
2019-04-25T06:00:06.403Z,73.40
2019-04-25T06:05:13.233Z,72.20
2019-04-25T06:10:19.735Z,72.50
2019-04-25T06:15:26.488Z,70.70
2019-04-25T06:20:34.309Z,70.70
2019-04-25T06:25:40.081Z,70.20
2019-04-25T06:30:45.536Z,69.90
2019-04-25T06:35:50.742Z,69.80
2019-04-25T06:40:56.809Z,68.60
2019-04-25T06:46:03.863Z,67.50
2019-04-25T06:51:09.176Z,66.90
2019-04-25T06:56:14.333Z,65.80
2019-04-25T07:01:19.483Z,65.40
2019-04-25T07:06:25.302Z,65.20
2019-04-25T07:11:31.297Z,63.60
2019-04-25T07:17:14.135Z,63.10
2019-04-25T07:22:19.385Z,62.70
2019-04-25T07:27:27.093Z,63.20
2019-04-25T07:32:34.854Z,62.90
2019-04-25T07:37:41.752Z,62.60
2019-04-25T07:42:47.161Z,62.30
2019-04-25T07:47:54.045Z,61.10
2019-04-25T07:52:59.246Z,60.80
2019-04-25T07:58:04.341Z,60.00
2019-04-25T08:03:09.321Z,59.60
2019-04-25T08:08:14.498Z,59.40
2019-04-25T08:13:20.160Z,59.20
2019-04-25T08:18:25.460Z,58.20
2019-04-25T08:23:32.470Z,57.50
2019-04-25T08:28:50.335Z,57.30
2019-04-25T08:33:46.487Z,56.50
2019-04-25T08:38:50.059Z,55.90
2019-04-25T08:43:54.931Z,55.60
2019-04-25T08:49:02.376Z,54.80
2019-04-25T08:54:09.505Z,53.40
2019-04-25T08:59:15.995Z,53.90
2019-04-25T09:04:23.979Z,53.10
2019-04-25T09:09:29.392Z,52.10
2019-04-25T09:14:37.833Z,50.70
2019-04-25T09:19:44.413Z,50.40
2019-04-25T09:24:49.935Z,50.50
2019-04-25T09:29:55.080Z,49.80
2019-04-25T09:35:00.764Z,48.00
2019-04-25T09:40:08.913Z,46.70
2019-04-25T09:45:15.723Z,45.70
2019-04-25T09:50:23.737Z,46.20
2019-04-25T09:55:30.785Z,45.70
2019-04-25T10:00:38.162Z,40.00
2019-04-25T10:05:43.477Z,32.60
2019-04-25T10:10:48.513Z,29.30
2019-04-25T10:15:56.763Z,27.00
2019-04-25T10:21:02.325Z,26.60
2019-04-25T10:26:10.084Z,25.20
2019-04-25T10:31:15.208Z,26.00
2019-04-25T10:36:20.157Z,25.80
2019-04-25T10:41:25.149Z,25.40
2019-04-25T10:46:30.386Z,24.90
2019-04-25T10:51:35.278Z,24.70
2019-04-25T10:56:40.223Z,24.60
2019-04-25T11:01:46.347Z,23.10
2019-04-25T11:06:53.454Z,20.50
2019-04-25T11:11:58.476Z,20.80
2019-04-25T11:17:05.221Z,21.40
2019-04-25T11:22:10.267Z,20.20
2019-04-25T11:27:16.268Z,20.20
2019-04-25T11:32:23.800Z,20.90
2019-04-25T11:37:30.508Z,20.50
2019-04-25T11:42:35.531Z,21.30
2019-04-25T11:47:40.447Z,21.60
2019-04-25T11:52:46.779Z,19.40
2019-04-25T11:57:53.169Z,19.80
2019-04-25T12:02:58.618Z,18.50
2019-04-25T12:08:04.146Z,18.30
2019-04-25T12:13:09.161Z,18.70
2019-04-25T12:18:14.253Z,19.10
2019-04-25T12:23:55.370Z,19.10
2019-04-25T12:29:01.208Z,20.20
2019-04-25T12:34:06.254Z,24.00
2019-04-25T12:39:11.273Z,26.80
2019-04-25T12:44:54.932Z,25.60
2019-04-25T12:50:01.019Z,24.90
2019-04-25T12:55:06.771Z,23.70
2019-04-25T13:00:14.050Z,24.30
2019-04-25T13:05:19.210Z,25.00
2019-04-25T13:10:24.170Z,23.40
2019-04-25T13:15:29.010Z,21.10
2019-04-25T13:20:34.136Z,22.40
2019-04-25T13:25:39.193Z,21.80
2019-04-25T13:30:59.900Z,21.50
2019-04-25T13:36:07.176Z,23.00
2019-04-25T13:41:15.168Z,25.00
2019-04-25T13:46:22.632Z,25.30
2019-04-25T13:51:30.773Z,21.90
2019-04-25T13:56:43.753Z,20.30
2019-04-25T14:01:57.669Z,20.80
2019-04-25T14:07:02.663Z,25.80
2019-04-25T14:12:08.822Z,28.70
2019-04-25T14:17:15.550Z,26.70
2019-04-25T14:22:22.093Z,23.00
2019-04-25T14:27:28.053Z,20.60
2019-04-25T14:32:33.878Z,20.70
2019-04-25T14:37:39.982Z,22.30
2019-04-25T14:42:44.921Z,20.50
2019-04-25T14:47:50.043Z,19.80
2019-04-25T14:52:54.906Z,19.60
2019-04-25T14:58:01.393Z,20.60
2019-04-25T15:03:07.907Z,21.00
2019-04-25T15:08:12.885Z,22.80
2019-04-25T15:13:18.039Z,22.50
2019-04-25T15:18:23.537Z,22.40
2019-04-25T15:23:28.723Z,23.10
2019-04-25T15:28:33.885Z,22.20
2019-04-25T15:33:39.031Z,21.00
2019-04-25T15:38:45.640Z,20.60
2019-04-25T15:43:52.291Z,20.40
2019-04-25T15:48:58.353Z,21.10
2019-04-25T15:54:03.276Z,22.60
2019-04-25T15:59:08.305Z,23.70
2019-04-25T16:04:13.382Z,24.80
2019-04-25T16:09:18.447Z,24.50
2019-04-25T16:14:23.372Z,24.80
2019-04-25T16:19:29.461Z,23.40
2019-04-25T16:24:38.182Z,25.30
2019-04-25T16:29:47.913Z,26.50
2019-04-25T16:34:53.803Z,26.50
2019-04-25T16:39:58.797Z,26.40
2019-04-25T16:45:06.668Z,25.30
2019-04-25T16:50:11.781Z,25.30
2019-04-25T16:55:17.616Z,26.20
2019-04-25T17:00:24.302Z,27.40
2019-04-25T17:05:31.024Z,28.30
2019-04-25T17:10:36.927Z,28.20
2019-04-25T17:15:43.686Z,29.00
2019-04-25T17:20:50.289Z,29.50
2019-04-25T17:25:55.259Z,30.40
2019-04-25T17:31:01.994Z,32.40
2019-04-25T17:36:08.590Z,34.60
2019-04-25T17:41:13.762Z,38.50
2019-04-25T17:46:20.293Z,40.60
2019-04-25T17:51:26.418Z,42.60
2019-04-25T17:56:32.155Z,44.10
2019-04-25T18:01:38.114Z,46.10
2019-04-25T18:06:44.317Z,48.20
2019-04-25T18:11:49.648Z,50.40
2019-04-25T18:16:54.702Z,53.00
2019-04-25T18:22:01.398Z,54.20
2019-04-25T18:27:07.930Z,59.30
2019-04-25T18:32:12.920Z,59.40
2019-04-25T18:37:19.397Z,62.80
2019-04-25T18:42:25.925Z,64.00
2019-04-25T18:47:31.027Z,63.30
2019-04-25T18:52:38.579Z,64.20
2019-04-25T18:57:45.482Z,65.80
2019-04-25T19:02:52.200Z,66.30
2019-04-25T19:07:57.360Z,68.00
2019-04-25T19:13:12.400Z,69.80
2019-04-25T19:18:10.141Z,71.50
2019-04-25T19:23:15.487Z,73.10
2019-04-25T19:28:20.531Z,73.20
2019-04-25T19:33:35.134Z,74.30
2019-04-25T19:38:32.453Z,74.30
2019-04-25T19:43:40.244Z,75.00
2019-04-25T19:48:45.658Z,74.40
2019-04-25T19:53:51.833Z,76.60
2019-04-25T19:58:56.660Z,76.80
2019-04-25T20:04:03.290Z,76.00
2019-04-25T20:09:09.899Z,74.80
2019-04-25T20:14:53.576Z,76.50
2019-04-25T20:19:58.561Z,77.30
2019-04-25T20:25:03.528Z,77.50
2019-04-25T20:30:08.738Z,77.80
2019-04-25T20:35:14.759Z,77.20
2019-04-25T20:40:20.435Z,78.60
2019-04-25T20:45:25.359Z,78.20
2019-04-25T20:50:30.289Z,78.70
2019-04-25T20:55:35.260Z,79.80
2019-04-25T21:00:42.998Z,81.00
2019-04-25T21:05:50.950Z,80.00
2019-04-25T21:10:56.140Z,81.40
2019-04-25T21:16:03.910Z,82.30
2019-04-25T21:21:08.805Z,80.80
2019-04-25T21:26:13.717Z,80.50
2019-04-25T21:31:18.762Z,81.50
2019-04-25T21:36:23.887Z,82.20
2019-04-25T21:41:30.750Z,82.20
2019-04-25T21:46:35.925Z,82.60
2019-04-25T21:51:42.147Z,81.80
2019-04-25T21:56:47.010Z,81.90
2019-04-25T22:01:52.224Z,83.90
2019-04-25T22:06:57.213Z,85.60
2019-04-25T22:12:03.315Z,84.00
2019-04-25T22:17:09.426Z,84.20
2019-04-25T22:22:15.799Z,85.70
2019-04-25T22:27:22.484Z,84.60
2019-04-25T22:32:29.014Z,84.30
2019-04-25T22:37:33.875Z,86.50
2019-04-25T22:42:40.010Z,86.10
2019-04-25T22:47:44.980Z,85.40
2019-04-25T22:52:49.888Z,85.20
2019-04-25T22:57:54.836Z,85.00
2019-04-25T23:03:02.305Z,86.10
2019-04-25T23:08:08.222Z,87.20
2019-04-25T23:13:13.389Z,85.70
2019-04-25T23:18:54.601Z,85.20
2019-04-25T23:23:59.803Z,85.70
2019-04-25T23:29:06.476Z,86.30
2019-04-25T23:34:11.536Z,86.70
2019-04-25T23:39:16.281Z,86.20
2019-04-25T23:44:21.325Z,87.60
2019-04-25T23:49:26.695Z,88.30
2019-04-25T23:54:32.327Z,87.50
2019-04-25T23:59:37.336Z,88.40
